Terminal Aerodrome Forecast
Issued by NWS

Home | Current Version | Previous Version | Text Only | Print | Product List | Glossary On
Versions: 1 2 3 4 5 6 7 8 9 10 11 12 13 14 15 16 17 18 19 20 21 22 23 24 25 26 27 28
000
FTUS41 KBUF 022300
TAFIAG
TAF
KIAG 022339Z 0300/0324 28007KT P6SM FEW040
     FM030100 27004KT P6SM FEW250
     FM031100 16004KT P6SM BKN200
     FM031300 15004KT P6SM BKN120
     FM031800 14008KT P6SM OVC040
     FM032000 15009KT 2SM -SN OVC045
     FM032300 17012G27KT 2SM -SNPL OVC025=

USA.gov is the U.S. government's official web portal to all federal, state and local government web resources and services.